Terminal Aerodrome Forecast
Issued by NWS

Home | Current Version | Previous Version | Text Only | Print | Product List | Glossary On
Versions: 1 2 3 4 5 6 7 8 9 10 11 12 13 14 15 16 17 18
000
FTUS41 KBGM 260500
TAFELM
TAF
KELM 260533Z 2606/2706 30005KT P6SM BKN250
     FM261200 06005KT P6SM -SN OVC050
      TEMPO 2612/2615 2SM -SN OVC015
     FM261500 04005KT 1SM -SN OVC015
     FM270200 33009KT 3SM -SHSN OVC022=

USA.gov is the U.S. government's official web portal to all federal, state and local government web resources and services.